If you wish to contribute or participate in the discussions about articles you are invited to join SKYbrary as a registered user

 Actions

Balkhash Airport

From SKYbrary Wiki

UAAH
Airport
ICAO: UAAH – IATA: BXH
Summary
Name Balkhash Airport
Region Asia and Pacific
Territory Kazakhstan KZ.gif
Location Balkhash
Serving Balkhash
Elevation 441 m <br />1,446.85 ft <br />1,446.85 ft441 m <br />
Coordinates 46° 53' 36.00" N, 75° 0' 18.00" E
Runways
Designator Length Width Surface ROPS
5/23 2502 m8,208.661 ft <br /> 40 m131.234 ft <br /> CON /


METAR
Observation UAAH 160430Z 10005MPS 060V130 CAVOK 17/M04 Q1017 R05/////60 NOSIG RMK QFE725/0967
Station Balkhash Airport
Date/Time 16 April 2021 04:30:00
Wind direction 100°
Wind speed kts
Lowest cloud amount clouds and visibility OK
Temperature 17°C
Dew point
Humidity 23%
QNH 1017 hPa
Weather condition n/a

Description

Balkhash Airport or Balqash Airport is an airport 6 km northeast the city of Balqash in Kazakhstan.